Time;durP1;ratioP1;P1;durP2;ratioP2;P2;SDS_P1;SDS_P2;PMS_P1;PMS_P2;Temp;Humidity;BMP_temperature;BMP_pressure;BME280_temperature;BME280_humidity;BME280_pressure;Samples;Min_cycle;Max_cycle;Signal;HPM_P1;HPM_P2
2023/09/24 00:01:13;;;;;;;5.82;1.60;;;12.00;99.90;;;;;;5050922;28;20108;-77
2023/09/24 00:03:39;;;;;;;5.07;1.50;;;11.80;99.90;;;;;;5056559;28;20199;-77
2023/09/24 00:06:07;;;;;;;12.88;2.22;;;11.70;99.90;;;;;;5057049;28;20033;-77
2023/09/24 00:08:33;;;;;;;9.32;2.03;;;11.80;99.90;;;;;;5051581;28;20033;-77
2023/09/24 00:10:58;;;;;;;8.70;2.47;;;11.60;99.90;;;;;;5056661;28;20438;-77
2023/09/24 00:13:25;;;;;;;5.47;1.80;;;11.60;99.90;;;;;;5054599;28;20137;-77
2023/09/24 00:15:51;;;;;;;5.28;1.88;;;11.50;99.90;;;;;;5053134;28;20139;-78
2023/09/24 00:18:17;;;;;;;5.05;2.08;;;11.50;99.90;;;;;;5059832;28;20415;-77
2023/09/24 00:20:44;;;;;;;17.48;2.95;;;11.50;99.90;;;;;;5053273;28;20501;-77
2023/09/24 00:23:14;;;;;;;3.40;1.85;;;11.50;99.90;;;;;;5052778;28;20514;-77
2023/09/24 00:25:40;;;;;;;5.07;2.15;;;11.50;99.90;;;;;;5043026;28;20021;-78
2023/09/24 00:28:07;;;;;;;6.23;1.93;;;11.40;99.90;;;;;;5060625;28;20531;-77
2023/09/24 00:30:34;;;;;;;;;;;11.40;99.90;;;;;;5054607;28;20033;-78
2023/09/24 00:33:00;;;;;;;5.53;1.90;;;11.40;99.90;;;;;;5053582;28;19975;-77
2023/09/24 00:35:26;;;;;;;8.55;2.03;;;11.40;99.90;;;;;;5059404;28;20052;-78
2023/09/24 00:37:52;;;;;;;9.07;2.05;;;11.30;99.90;;;;;;5043946;28;20044;-78
2023/09/24 00:40:18;;;;;;;6.25;1.75;;;11.20;99.90;;;;;;5048259;28;20033;-77
2023/09/24 00:42:44;;;;;;;12.37;1.63;;;11.20;99.90;;;;;;5054983;28;20113;-77
2023/09/24 00:45:12;;;;;;;6.30;2.05;;;11.10;99.90;;;;;;5053601;28;20036;-77
2023/09/24 00:47:43;;;;;;;4.60;1.95;;;11.00;99.90;;;;;;5045805;28;20094;-77
2023/09/24 00:50:10;;;;;;;7.78;2.20;;;11.00;99.90;;;;;;5048977;28;20060;-77
2023/09/24 00:52:36;;;;;;;10.57;2.25;;;10.90;99.90;;;;;;5049089;28;20410;-77
2023/09/24 00:55:04;;;;;;;6.60;1.98;;;10.80;99.90;;;;;;5055024;28;20502;-78
2023/09/24 00:57:32;;;;;;;5.53;1.83;;;11.00;99.90;;;;;;5056932;28;20565;-77
2023/09/24 00:59:59;;;;;;;5.55;2.28;;;11.00;99.90;;;;;;5047491;28;20490;-78
2023/09/24 01:02:25;;;;;;;5.60;2.03;;;10.90;99.90;;;;;;5060466;28;20123;-78
2023/09/24 01:04:53;;;;;;;2.60;1.75;;;10.90;99.90;;;;;;5052398;28;20060;-78
2023/09/24 01:07:21;;;;;;;8.95;1.75;;;10.90;99.90;;;;;;5058098;28;20031;-77
2023/09/24 01:09:48;;;;;;;6.80;2.00;;;10.80;99.90;;;;;;5052288;28;20052;-78
2023/09/24 01:12:25;;;;;;;9.75;2.08;;;10.80;99.90;;;;;;5053393;28;20071;-78
2023/09/24 01:14:53;;;;;;;3.85;1.77;;;10.80;99.90;;;;;;5054696;28;20664;-78
2023/09/24 01:17:20;;;;;;;5.57;2.03;;;10.80;99.90;;;;;;5050311;28;20073;-77
2023/09/24 01:19:51;;;;;;;9.82;2.53;;;10.70;99.90;;;;;;5056222;28;20144;-77
2023/09/24 01:22:17;;;;;;;7.65;2.05;;;10.60;99.90;;;;;;5075863;28;20115;-78
2023/09/24 01:24:44;;;;;;;4.70;1.73;;;10.60;99.90;;;;;;5032827;28;20596;-78
2023/09/24 01:27:10;;;;;;;9.13;2.05;;;10.60;99.90;;;;;;5053420;28;20094;-77
2023/09/24 01:29:36;;;;;;;6.03;2.00;;;10.50;99.90;;;;;;5055328;28;20036;-77
2023/09/24 01:32:06;;;;;;;3.20;1.50;;;10.70;99.90;;;;;;5066011;28;20241;-78
2023/09/24 01:34:34;;;;;;;9.40;2.08;;;10.70;99.90;;;;;;5049869;28;20060;-77
2023/09/24 01:37:07;;;;;;;3.83;1.75;;;10.70;99.90;;;;;;5052386;28;20375;-78
2023/09/24 01:39:36;;;;;;;4.43;2.33;;;10.60;99.90;;;;;;5056683;28;20418;-78
2023/09/24 01:42:02;;;;;;;3.47;1.60;;;10.60;99.90;;;;;;5065942;28;20569;-77
2023/09/24 01:44:32;;;;;;;6.32;2.33;;;10.70;99.90;;;;;;5060930;28;20376;-76
2023/09/24 01:46:58;;;;;;;5.85;1.55;;;10.60;99.90;;;;;;5057488;28;20124;-78
2023/09/24 01:49:24;;;;;;;10.77;1.80;;;10.50;99.90;;;;;;5052860;28;20068;-76
2023/09/24 01:51:50;;;;;;;4.37;1.60;;;10.50;99.90;;;;;;5041055;28;20470;-78
2023/09/24 01:54:16;;;;;;;8.87;1.90;;;10.50;99.90;;;;;;5049376;28;20031;-78
2023/09/24 01:56:42;;;;;;;14.25;2.03;;;10.60;99.90;;;;;;5052708;28;20029;-77
2023/09/24 01:59:08;;;;;;;4.82;2.20;;;10.60;99.90;;;;;;5066984;28;20533;-77
2023/09/24 02:01:33;;;;;;;5.87;2.47;;;10.50;99.90;;;;;;5051687;28;20090;-78
2023/09/24 02:04:01;;;;;;;11.73;1.87;;;10.40;99.90;;;;;;5052951;28;20059;-77
2023/09/24 02:06:27;;;;;;;7.72;1.90;;;10.40;99.90;;;;;;5056819;28;20021;-78
2023/09/24 02:08:53;;;;;;;8.35;1.98;;;10.40;99.90;;;;;;5033900;28;20044;-78
2023/09/24 02:11:20;;;;;;;5.80;2.17;;;10.40;99.90;;;;;;5055418;28;20032;-76
2023/09/24 02:13:46;;;;;;;7.93;2.42;;;10.30;99.90;;;;;;5057504;28;20387;-77
2023/09/24 02:16:12;;;;;;;4.00;1.63;;;10.20;99.90;;;;;;5054487;28;20025;-77
2023/09/24 02:18:39;;;;;;;8.43;2.20;;;10.30;99.90;;;;;;5049720;28;20490;-77
2023/09/24 02:21:14;;;;;;;9.40;1.75;;;10.30;99.90;;;;;;5051743;28;20033;-76
2023/09/24 02:23:41;;;;;;;12.43;2.20;;;10.30;99.90;;;;;;5042875;28;20090;-74
2023/09/24 02:26:09;;;;;;;13.43;1.80;;;10.30;99.90;;;;;;5039459;28;20020;-75
2023/09/24 02:28:39;;;;;;;13.73;2.42;;;10.30;99.90;;;;;;5041819;28;20064;-74
2023/09/24 02:31:12;;;;;;;4.07;2.08;;;10.30;99.90;;;;;;5046173;28;20033;-75
2023/09/24 02:33:39;;;;;;;4.10;2.20;;;10.20;99.90;;;;;;5053341;28;20445;-75
2023/09/24 02:36:07;;;;;;;7.55;2.35;;;10.30;99.90;;;;;;5057234;28;20071;-76
2023/09/24 02:38:35;;;;;;;8.32;3.35;;;10.30;99.90;;;;;;5044470;28;20037;-75
2023/09/24 02:41:02;;;;;;;14.15;2.33;;;10.20;99.90;;;;;;5054144;28;20040;-74
2023/09/24 02:43:32;;;;;;;4.03;2.00;;;10.20;99.90;;;;;;5043033;28;20051;-75
2023/09/24 02:45:58;;;;;;;4.55;1.67;;;10.20;99.90;;;;;;5050386;28;20431;-75
2023/09/24 02:48:24;;;;;;;7.55;2.65;;;10.10;99.90;;;;;;5054895;28;20033;-75
2023/09/24 02:50:50;;;;;;;5.32;2.13;;;10.00;99.90;;;;;;5041219;28;20017;-74
2023/09/24 02:53:16;;;;;;;9.73;2.55;;;10.00;99.90;;;;;;5038386;28;20741;-75
2023/09/24 02:55:42;;;;;;;6.35;2.30;;;10.00;99.90;;;;;;5046179;28;20037;-75
2023/09/24 02:58:08;;;;;;;8.60;2.47;;;10.10;99.90;;;;;;5044217;28;20037;-75
2023/09/24 03:00:36;;;;;;;5.57;2.15;;;10.10;99.90;;;;;;5041063;28;20033;-75
2023/09/24 03:03:05;;;;;;;10.00;2.20;;;10.10;99.90;;;;;;5051188;28;20033;-74
2023/09/24 03:05:31;;;;;;;6.35;2.00;;;10.00;99.90;;;;;;5044534;28;20107;-76
2023/09/24 03:08:01;;;;;;;7.57;2.17;;;10.10;99.90;;;;;;5051347;28;20095;-75
2023/09/24 03:10:29;;;;;;;5.13;1.58;;;10.10;99.90;;;;;;5049022;28;20127;-75
2023/09/24 03:12:55;;;;;;;3.10;1.90;;;10.00;99.90;;;;;;5049040;28;20063;-76
2023/09/24 03:15:20;;;;;;;3.95;1.98;;;9.90;99.90;;;;;;5048510;28;20066;-76
2023/09/24 03:17:46;;;;;;;12.40;2.87;;;9.90;99.90;;;;;;5049552;28;20040;-74
2023/09/24 03:20:15;;;;;;;11.03;2.77;;;10.00;99.90;;;;;;5047821;28;20052;-75
2023/09/24 03:22:49;;;;;;;5.78;2.40;;;9.80;99.90;;;;;;5047456;28;20349;-76
2023/09/24 03:25:20;;;;;;;8.27;1.95;;;9.80;99.90;;;;;;5044466;28;20032;-76
2023/09/24 03:27:47;;;;;;;6.97;2.05;;;9.80;99.90;;;;;;5049583;28;20024;-75
2023/09/24 03:30:17;;;;;;;16.33;3.10;;;9.90;99.90;;;;;;5041475;28;20156;-73
2023/09/24 03:32:47;;;;;;;3.95;2.63;;;9.90;99.90;;;;;;5042541;28;20037;-76
2023/09/24 03:35:14;;;;;;;8.88;2.30;;;9.80;99.90;;;;;;5035744;28;20025;-75
2023/09/24 03:37:43;;;;;;;6.60;2.40;;;9.80;99.90;;;;;;5044961;28;20052;-76
2023/09/24 03:40:20;;;;;;;8.93;3.00;;;9.80;99.90;;;;;;5037232;28;20033;-76
2023/09/24 03:42:47;;;;;;;5.95;2.90;;;9.80;99.90;;;;;;5033697;28;20040;-75
2023/09/24 03:45:18;;;;;;;7.03;2.50;;;9.80;99.90;;;;;;5059165;28;20041;-76
2023/09/24 03:47:45;;;;;;;11.52;2.70;;;9.80;99.90;;;;;;5046063;28;20061;-76
2023/09/24 03:50:17;;;;;;;8.25;2.42;;;9.70;99.90;;;;;;5047974;28;21124;-74
2023/09/24 03:52:47;;;;;;;4.80;2.60;;;9.70;99.90;;;;;;5053978;28;20478;-75
2023/09/24 03:55:18;;;;;;;10.13;2.13;;;9.60;99.90;;;;;;5032747;28;20124;-75
2023/09/24 03:57:47;;;;;;;5.75;2.50;;;9.50;99.90;;;;;;5042340;28;20067;-75
2023/09/24 04:00:18;;;;;;;4.65;2.15;;;9.60;99.90;;;;;;5044817;28;20460;-74
2023/09/24 04:02:49;;;;;;;11.63;2.47;;;9.60;99.90;;;;;;5049325;28;20622;-78
2023/09/24 04:05:17;;;;;;;10.18;2.65;;;9.60;99.90;;;;;;5048894;28;20410;-78
2023/09/24 04:07:47;;;;;;;8.77;2.70;;;9.60;99.90;;;;;;5047664;28;20028;-78
2023/09/24 04:10:14;;;;;;;8.80;2.55;;;9.60;99.90;;;;;;5047443;28;20036;-77
2023/09/24 04:12:42;;;;;;;6.15;2.30;;;9.70;99.90;;;;;;5042400;28;20041;-78
2023/09/24 04:15:09;;;;;;;9.77;2.20;;;9.70;99.90;;;;;;5052205;28;20081;-77
2023/09/24 04:17:41;;;;;;;5.90;2.47;;;9.70;99.90;;;;;;5042900;28;20022;-78
2023/09/24 04:20:08;;;;;;;16.85;3.13;;;9.60;99.90;;;;;;5044023;28;20033;-78
2023/09/24 04:22:34;;;;;;;;;;;9.60;99.90;;;;;;5048172;28;20086;-77
2023/09/24 04:25:00;;;;;;;5.05;2.10;;;9.70;99.90;;;;;;5061166;28;19919;-77
2023/09/24 04:27:26;;;;;;;8.15;2.78;;;9.70;99.90;;;;;;5035270;28;20036;-77
2023/09/24 04:29:52;;;;;;;10.13;3.10;;;9.70;99.90;;;;;;5054856;28;20041;-76
2023/09/24 04:32:18;;;;;;;5.10;2.40;;;9.80;99.90;;;;;;5040698;28;20052;-78
2023/09/24 04:34:45;;;;;;;6.30;2.70;;;9.70;99.90;;;;;;5032784;28;20728;-78
2023/09/24 04:37:12;;;;;;;6.35;2.35;;;9.80;99.90;;;;;;5042503;28;20155;-77
2023/09/24 04:39:38;;;;;;;6.05;2.65;;;9.70;99.90;;;;;;5047939;28;20028;-77
2023/09/24 04:42:06;;;;;;;3.87;2.43;;;9.70;99.90;;;;;;5042909;28;20032;-78
2023/09/24 04:44:32;;;;;;;6.15;2.50;;;9.50;99.90;;;;;;5065950;28;20062;-78
2023/09/24 04:46:57;;;;;;;5.33;3.30;;;9.40;99.90;;;;;;5044076;28;20036;-78
2023/09/24 04:49:24;;;;;;;4.20;2.60;;;9.50;99.90;;;;;;5052743;28;20096;-78
2023/09/24 04:51:50;;;;;;;6.00;2.88;;;9.60;99.90;;;;;;5050446;28;20327;-78
2023/09/24 04:54:16;;;;;;;8.43;2.60;;;9.60;99.90;;;;;;5046065;28;20069;-78
2023/09/24 04:56:42;;;;;;;6.32;2.92;;;9.70;99.90;;;;;;5055441;28;20071;-77
2023/09/24 04:59:08;;;;;;;5.80;2.17;;;9.60;99.90;;;;;;5046400;28;20068;-77
2023/09/24 05:01:34;;;;;;;6.93;2.88;;;9.60;99.90;;;;;;5053805;28;20478;-78
2023/09/24 05:04:02;;;;;;;7.50;2.75;;;9.50;99.90;;;;;;5048133;28;20033;-78
2023/09/24 05:06:28;;;;;;;8.57;2.55;;;9.60;99.90;;;;;;5048213;28;20034;-78
2023/09/24 05:08:56;;;;;;;2.93;2.20;;;9.70;99.90;;;;;;5049495;28;20033;-78
2023/09/24 05:11:22;;;;;;;4.68;2.30;;;9.70;99.90;;;;;;5047096;28;20029;-78
2023/09/24 05:13:51;;;;;;;11.23;2.67;;;9.70;99.90;;;;;;5048169;28;20045;-77
2023/09/24 05:16:19;;;;;;;9.02;2.58;;;9.70;99.90;;;;;;5043539;28;21201;-77
2023/09/24 05:18:45;;;;;;;5.05;2.42;;;9.60;99.90;;;;;;5064176;28;20024;-77
2023/09/24 05:21:15;;;;;;;14.98;4.80;;;9.70;99.90;;;;;;5049237;28;20115;-78
2023/09/24 05:23:41;;;;;;;12.48;2.90;;;9.80;99.90;;;;;;5068705;28;20569;-78
2023/09/24 05:26:13;;;;;;;9.10;2.80;;;9.90;99.90;;;;;;5049752;28;20036;-76
2023/09/24 05:28:41;;;;;;;7.72;2.60;;;10.00;99.90;;;;;;5046553;28;20044;-77
2023/09/24 05:31:07;;;;;;;4.10;2.50;;;9.90;99.90;;;;;;5046339;28;20029;-77
2023/09/24 05:33:33;;;;;;;8.68;2.78;;;10.10;99.90;;;;;;5044805;28;20033;-77
2023/09/24 05:36:00;;;;;;;5.63;2.73;;;10.00;99.90;;;;;;5044840;28;20040;-76
2023/09/24 05:38:29;;;;;;;6.15;2.88;;;10.10;99.90;;;;;;5048663;28;20032;-76
2023/09/24 05:40:57;;;;;;;15.77;5.53;;;10.20;99.90;;;;;;5045139;28;21064;-77
2023/09/24 05:43:23;;;;;;;5.70;3.97;;;10.30;99.90;;;;;;5046496;28;20041;-77
2023/09/24 05:45:50;;;;;;;10.63;4.57;;;10.50;99.90;;;;;;5042105;28;20055;-77
2023/09/24 05:48:17;;;;;;;9.82;5.32;;;10.60;99.90;;;;;;5042213;28;20040;-77
2023/09/24 05:50:46;;;;;;;15.65;5.68;;;10.60;99.90;;;;;;5045389;28;20040;-78
2023/09/24 05:53:13;;;;;;;13.77;5.10;;;10.70;99.90;;;;;;5047869;28;20036;-77
2023/09/24 05:55:40;;;;;;;12.95;5.07;;;10.70;99.90;;;;;;5040325;28;20025;-77
2023/09/24 05:58:06;;;;;;;9.68;5.32;;;10.80;99.90;;;;;;5043411;28;20033;-77
2023/09/24 06:00:36;;;;;;;15.50;5.50;;;10.90;99.90;;;;;;5040257;28;20036;-77
2023/09/24 06:03:02;;;;;;;9.40;5.05;;;10.90;99.90;;;;;;5042150;28;20033;-76
2023/09/24 06:05:28;;;;;;;10.88;5.45;;;11.00;99.90;;;;;;5050981;28;20129;-77
2023/09/24 06:07:55;;;;;;;14.45;5.80;;;11.00;99.90;;;;;;5046049;28;20088;-77
2023/09/24 06:10:21;;;;;;;6.63;4.88;;;11.10;99.90;;;;;;5045491;28;20033;-77
2023/09/24 06:12:47;;;;;;;6.63;4.80;;;11.10;99.90;;;;;;5058423;28;20039;-77
2023/09/24 06:15:13;;;;;;;12.90;4.53;;;11.20;99.90;;;;;;5052443;28;20033;-77
2023/09/24 06:17:40;;;;;;;8.73;4.43;;;11.20;99.90;;;;;;5043657;28;20045;-73
2023/09/24 06:20:06;;;;;;;10.02;4.68;;;11.20;99.90;;;;;;5033183;28;20038;-74
2023/09/24 06:22:32;;;;;;;;;;;11.20;99.90;;;;;;5068397;28;20514;-72
2023/09/24 06:24:58;;;;;;;10.38;4.50;;;11.30;99.90;;;;;;5047644;28;19913;-72
2023/09/24 06:27:24;;;;;;;7.63;4.13;;;11.30;99.90;;;;;;5049118;28;20039;-72
2023/09/24 06:29:49;;;;;;;6.60;4.30;;;11.30;99.90;;;;;;5050182;28;20028;-72
2023/09/24 06:32:16;;;;;;;8.10;4.60;;;11.30;99.90;;;;;;5039484;28;20299;-72
2023/09/24 06:34:42;;;;;;;16.25;4.93;;;11.40;99.90;;;;;;5042190;28;20383;-71
2023/09/24 06:37:08;;;;;;;7.73;4.10;;;11.40;99.90;;;;;;5048479;28;20036;-72
2023/09/24 06:39:34;;;;;;;6.63;4.23;;;11.50;99.90;;;;;;5044640;28;20024;-72
2023/09/24 06:42:03;;;;;;;8.25;4.80;;;11.50;99.90;;;;;;5042463;28;20111;-72
2023/09/24 06:44:29;;;;;;;11.52;4.70;;;11.60;99.90;;;;;;5053189;28;20052;-72
2023/09/24 06:46:55;;;;;;;12.25;4.95;;;11.60;99.90;;;;;;5056428;28;20021;-72
2023/09/24 06:49:21;;;;;;;7.05;4.45;;;11.60;99.90;;;;;;5033301;28;20068;-71
2023/09/24 06:51:47;;;;;;;5.70;4.40;;;11.70;99.90;;;;;;5040486;28;20057;-72
2023/09/24 06:54:13;;;;;;;6.03;4.77;;;11.80;99.90;;;;;;5049851;28;20036;-72
2023/09/24 06:56:39;;;;;;;8.90;4.78;;;11.90;99.90;;;;;;5069571;28;20170;-73
2023/09/24 06:59:09;;;;;;;9.20;4.63;;;12.00;99.90;;;;;;5068935;28;20116;-74
2023/09/24 07:01:38;;;;;;;8.30;5.03;;;12.00;99.90;;;;;;5048779;28;20459;-77
2023/09/24 07:04:08;;;;;;;6.13;4.07;;;12.00;99.90;;;;;;5047877;28;20032;-76
2023/09/24 07:06:33;;;;;;;7.18;4.22;;;11.90;99.90;;;;;;5046038;28;20074;-73
2023/09/24 07:09:00;;;;;;;7.60;5.80;;;12.00;99.90;;;;;;5038345;28;20037;-73
2023/09/24 07:11:33;;;;;;;9.20;4.18;;;12.20;99.90;;;;;;5042418;28;20591;-74
2023/09/24 07:13:58;;;;;;;9.55;4.97;;;12.30;99.90;;;;;;5044403;28;20537;-74
2023/09/24 07:16:26;;;;;;;5.82;4.07;;;12.60;99.90;;;;;;5040258;28;20033;-74
2023/09/24 07:18:53;;;;;;;7.28;4.35;;;12.90;99.90;;;;;;5048526;28;20040;-74
2023/09/24 07:21:26;;;;;;;9.95;4.35;;;12.90;99.90;;;;;;5051689;28;20033;-76
2023/09/24 07:23:56;;;;;;;7.13;3.97;;;12.70;99.90;;;;;;5039080;28;20037;-78
2023/09/24 07:26:25;;;;;;;5.55;4.00;;;12.60;99.90;;;;;;5042652;28;20033;-76
2023/09/24 07:28:52;;;;;;;11.90;4.65;;;12.50;99.90;;;;;;5041752;28;20024;-76
2023/09/24 07:31:23;;;;;;;11.38;3.95;;;12.50;99.90;;;;;;5047104;28;20537;-76
2023/09/24 07:33:50;;;;;;;9.50;4.28;;;12.70;99.90;;;;;;5043452;28;20132;-77
2023/09/24 07:36:16;;;;;;;8.07;3.85;;;13.00;99.90;;;;;;5036023;28;20075;-75
2023/09/24 07:38:42;;;;;;;10.27;4.00;;;13.10;99.90;;;;;;5044966;28;20024;-78
2023/09/24 07:41:08;;;;;;;6.80;4.40;;;13.10;99.90;;;;;;5045473;28;20108;-74
2023/09/24 07:43:38;;;;;;;6.18;3.30;;;13.20;99.90;;;;;;5049992;28;20036;-73
2023/09/24 07:46:05;;;;;;;5.78;3.20;;;13.40;99.90;;;;;;5032288;28;20029;-73
2023/09/24 07:48:31;;;;;;;;;;;13.50;99.90;;;;;;5036975;28;20040;-75
2023/09/24 07:50:57;;;;;;;10.18;3.65;;;13.60;99.90;;;;;;5046089;28;19908;-74
2023/09/24 07:53:23;;;;;;;12.70;3.88;;;13.90;99.90;;;;;;5044605;28;20048;-73
2023/09/24 07:56:06;;;;;;;11.25;4.35;;;14.20;99.90;;;;;;5048714;28;20028;-74
2023/09/24 07:58:32;;;;;;;6.18;3.60;;;14.40;99.90;;;;;;5043078;28;20449;-72
2023/09/24 08:01:06;;;;;;;5.90;3.43;;;14.40;99.90;;;;;;5045111;28;20028;-73
2023/09/24 08:03:32;;;;;;;7.72;3.30;;;14.20;99.90;;;;;;5041777;28;20025;-73
2023/09/24 08:05:58;;;;;;;8.48;3.70;;;14.20;99.90;;;;;;5044502;28;20035;-73
2023/09/24 08:08:25;;;;;;;6.25;3.58;;;14.30;99.90;;;;;;5059255;28;20095;-74
2023/09/24 08:10:51;;;;;;;5.82;3.60;;;14.30;99.90;;;;;;5047687;28;20056;-73
2023/09/24 08:13:19;;;;;;;8.70;3.27;;;14.50;99.90;;;;;;5046844;28;20541;-73
2023/09/24 08:15:45;;;;;;;6.60;3.17;;;15.00;99.90;;;;;;5046629;28;20052;-73
2023/09/24 08:18:12;;;;;;;4.47;3.30;;;16.70;99.90;;;;;;5043755;28;20499;-73
2023/09/24 08:20:39;;;;;;;4.28;2.40;;;17.10;99.90;;;;;;5044379;28;20025;-73
2023/09/24 08:23:05;;;;;;;;;;;16.80;99.90;;;;;;5053575;28;20033;-74
2023/09/24 08:25:32;;;;;;;5.40;2.60;;;19.90;94.00;;;;;;5051193;28;19920;-73
2023/09/24 08:27:58;;;;;;;13.25;2.40;;;22.50;83.50;;;;;;5056361;28;20507;-75
2023/09/24 08:30:26;;;;;;;4.03;2.90;;;24.20;75.20;;;;;;5047785;28;20025;-74
2023/09/24 08:32:52;;;;;;;4.70;2.30;;;25.20;74.40;;;;;;5042489;28;20464;-75
2023/09/24 08:35:18;;;;;;;6.45;3.15;;;24.90;72.30;;;;;;5044267;28;20028;-75
2023/09/24 08:37:44;;;;;;;3.55;2.15;;;25.30;69.30;;;;;;5041137;28;20032;-75
2023/09/24 08:40:11;;;;;;;4.65;1.90;;;26.20;71.40;;;;;;5051879;28;20024;-75
2023/09/24 08:42:37;;;;;;;2.75;2.15;;;23.80;69.70;;;;;;5050247;28;20365;-75
2023/09/24 08:45:14;;;;;;;4.55;2.22;;;24.90;71.10;;;;;;5048200;28;20026;-75
2023/09/24 08:47:40;;;;;;;;;;;26.40;68.00;;;;;;5053477;28;20103;-75
2023/09/24 08:50:07;;;;;;;4.45;2.58;;;27.20;69.30;;;;;;5072384;28;19912;-75
2023/09/24 08:52:35;;;;;;;3.08;1.70;;;;;;;;;;5054670;28;20036;-73
2023/09/24 08:55:03;;;;;;;2.17;1.98;;;27.80;67.10;;;;;;5047815;28;20565;-72
2023/09/24 08:57:30;;;;;;;4.88;1.65;;;27.60;68.80;;;;;;5033334;28;20025;-73
2023/09/24 08:59:56;;;;;;;8.20;2.20;;;28.10;69.80;;;;;;5044708;28;20090;-73
2023/09/24 09:02:21;;;;;;;5.97;1.98;;;28.60;71.70;;;;;;5057638;28;20037;-73
2023/09/24 09:04:50;;;;;;;6.80;2.40;;;27.70;66.50;;;;;;5040606;28;20055;-74
2023/09/24 09:07:16;;;;;;;5.47;2.28;;;28.10;74.40;;;;;;5068291;28;20039;-73
2023/09/24 09:09:55;;;;;;;2.58;2.08;;;28.20;70.10;;;;;;5050196;28;20033;-74
2023/09/24 09:12:23;;;;;;;4.40;2.00;;;28.70;67.10;;;;;;5041704;28;20113;-73
2023/09/24 09:14:49;;;;;;;2.90;1.73;;;28.70;73.40;;;;;;5044611;28;20120;-74
2023/09/24 09:17:17;;;;;;;;;;;30.30;69.80;;;;;;5053998;28;20666;-73
2023/09/24 09:19:55;;;;;;;2.75;1.50;;;29.00;67.80;;;;;;5050997;28;19919;-74
2023/09/24 09:22:23;;;;;;;2.70;1.50;;;29.20;75.70;;;;;;5049118;28;20086;-72
2023/09/24 09:25:09;;;;;;;4.57;1.80;;;29.50;75.50;;;;;;5049863;28;20037;-74
2023/09/24 09:27:42;;;;;;;3.58;1.95;;;29.90;75.40;;;;;;5049722;28;20083;-74
2023/09/24 09:30:18;;;;;;;4.80;1.75;;;30.00;78.40;;;;;;5043708;28;20056;-75
2023/09/24 09:32:47;;;;;;;2.35;1.65;;;29.70;77.60;;;;;;5053015;28;20160;-74
2023/09/24 09:35:17;;;;;;;2.30;1.77;;;;;;;;;;5043929;28;20034;-77
2023/09/24 09:37:44;;;;;;;2.75;1.60;;;29.30;84.90;;;;;;5046824;28;20107;-76
2023/09/24 09:40:14;;;;;;;2.55;1.85;;;;;;;;;;5047502;28;20037;-76
2023/09/24 09:42:42;;;;;;;5.63;1.70;;;;;;;;;;5059148;28;20127;-78
2023/09/24 09:45:10;;;;;;;2.00;1.35;;;29.60;55.60;;;;;;5044182;28;20044;-77
2023/09/24 09:47:58;;;;;;;2.65;1.48;;;27.30;59.20;;;;;;5046513;28;20083;-77
2023/09/24 09:50:26;;;;;;;7.80;1.45;;;24.50;61.00;;;;;;5043617;28;20028;-78
2023/09/24 09:52:55;;;;;;;5.40;1.50;;;22.60;67.60;;;;;;5046575;28;20605;-76
2023/09/24 09:55:23;;;;;;;2.13;1.23;;;21.70;71.50;;;;;;5060051;28;20037;-77
2023/09/24 09:57:49;;;;;;;3.15;1.80;;;20.80;73.30;;;;;;5063256;28;20024;-77
2023/09/24 10:00:16;;;;;;;3.13;1.70;;;20.80;72.20;;;;;;5042972;28;20037;-77
2023/09/24 10:02:43;;;;;;;4.38;2.10;;;19.90;75.70;;;;;;5041691;28;20117;-76
2023/09/24 10:05:11;;;;;;;3.28;2.20;;;19.90;74.90;;;;;;5043018;28;20040;-76
2023/09/24 10:07:38;;;;;;;3.20;1.92;;;20.00;75.70;;;;;;5049228;28;20144;-76
2023/09/24 10:10:32;;;;;;;4.43;2.00;;;19.80;74.20;;;;;;5035191;28;20033;-77
2023/09/24 10:12:59;;;;;;;3.75;1.90;;;19.50;75.90;;;;;;5044501;28;20510;-77
2023/09/24 10:15:27;;;;;;;4.38;2.15;;;19.30;76.40;;;;;;5047959;28;20086;-76
2023/09/24 10:18:11;;;;;;;3.88;1.75;;;18.50;78.40;;;;;;5061684;28;20040;-75
2023/09/24 10:20:50;;;;;;;4.82;2.08;;;18.50;84.10;;;;;;5039314;28;20036;-76
2023/09/24 10:23:32;;;;;;;5.45;2.22;;;18.20;85.90;;;;;;5047429;28;20037;-75
2023/09/24 10:26:00;;;;;;;5.05;2.35;;;18.40;79.40;;;;;;5044011;28;20028;-76
2023/09/24 10:28:51;;;;;;;4.40;1.98;;;18.10;80.20;;;;;;5041763;28;20029;-76
2023/09/24 10:31:20;;;;;;;2.15;1.70;;;18.30;84.40;;;;;;5039758;28;20435;-73
2023/09/24 10:34:01;;;;;;;3.75;1.95;;;18.20;85.20;;;;;;5051716;28;20093;-77
2023/09/24 10:36:33;;;;;;;3.45;1.80;;;19.30;83.00;;;;;;5048084;28;20037;-76
2023/09/24 10:39:19;;;;;;;3.55;2.08;;;18.50;84.40;;;;;;5045319;28;20034;-76
2023/09/24 10:42:13;;;;;;;3.25;1.70;;;18.40;86.90;;;;;;5053730;28;20044;-72
2023/09/24 10:44:39;;;;;;;3.40;1.90;;;18.30;87.10;;;;;;5054257;28;20467;-71
2023/09/24 10:47:23;;;;;;;7.55;2.20;;;18.30;89.40;;;;;;5046105;28;20059;-70
2023/09/24 10:49:50;;;;;;;5.57;1.58;;;18.10;92.40;;;;;;5042636;28;20387;-70
2023/09/24 10:52:16;;;;;;;7.30;2.00;;;18.10;91.30;;;;;;5053796;28;20037;-70
2023/09/24 10:54:46;;;;;;;4.50;1.87;;;18.00;91.00;;;;;;5050778;28;20191;-70
2023/09/24 10:57:23;;;;;;;5.15;1.88;;;18.00;91.80;;;;;;5036103;28;20033;-70
2023/09/24 10:59:48;;;;;;;6.10;1.80;;;18.10;93.00;;;;;;5054728;28;20099;-70
2023/09/24 11:02:18;;;;;;;7.47;1.80;;;17.90;91.20;;;;;;5051385;28;20025;-70
2023/09/24 11:04:44;;;;;;;5.25;2.28;;;17.90;91.20;;;;;;5039285;28;20029;-71
2023/09/24 11:07:10;;;;;;;4.17;2.03;;;18.10;92.00;;;;;;5052978;28;20378;-69
2023/09/24 11:09:36;;;;;;;4.95;2.15;;;17.90;91.30;;;;;;5057000;28;20842;-70
2023/09/24 11:12:08;;;;;;;3.42;1.60;;;17.80;91.60;;;;;;5054793;28;20066;-70
2023/09/24 11:14:33;;;;;;;3.42;1.63;;;17.90;90.50;;;;;;5051379;28;20182;-71
2023/09/24 11:16:59;;;;;;;3.20;1.90;;;17.90;89.10;;;;;;5068788;28;20573;-71
2023/09/24 11:19:41;;;;;;;5.30;1.60;;;18.10;88.50;;;;;;5055311;28;20028;-70
2023/09/24 11:22:18;;;;;;;6.18;1.67;;;18.00;86.10;;;;;;5049884;28;20036;-70
2023/09/24 11:24:45;;;;;;;7.03;1.80;;;18.00;86.70;;;;;;5048022;28;20066;-70
2023/09/24 11:27:11;;;;;;;4.30;2.25;;;17.80;86.00;;;;;;5046943;28;20132;-70
2023/09/24 11:29:36;;;;;;;6.35;1.85;;;18.00;87.70;;;;;;5049251;28;20112;-70
2023/09/24 11:32:02;;;;;;;2.77;1.70;;;18.10;88.90;;;;;;5043837;28;20071;-70
2023/09/24 11:34:29;;;;;;;2.78;1.58;;;18.00;87.70;;;;;;5051008;28;20025;-70
2023/09/24 11:36:58;;;;;;;5.25;1.40;;;18.20;89.60;;;;;;5051716;28;20099;-70
2023/09/24 11:39:24;;;;;;;3.90;1.63;;;18.20;87.80;;;;;;5055580;28;20024;-71
2023/09/24 11:41:50;;;;;;;2.97;1.58;;;18.30;86.80;;;;;;5046994;28;20024;-70
2023/09/24 11:44:16;;;;;;;;;;;18.50;90.40;;;;;;5054684;28;20532;-71
2023/09/24 11:46:43;;;;;;;4.10;1.40;;;18.30;87.40;;;;;;5045648;28;19912;-70
2023/09/24 11:49:09;;;;;;;4.97;1.50;;;18.30;87.50;;;;;;5063730;28;20056;-70
2023/09/24 11:51:35;;;;;;;2.97;1.47;;;18.40;88.20;;;;;;5055564;28;20060;-70
2023/09/24 11:54:02;;;;;;;4.13;1.70;;;18.60;89.20;;;;;;5053645;28;20033;-71
2023/09/24 11:56:28;;;;;;;5.85;1.40;;;18.70;89.20;;;;;;5060877;28;20025;-70
2023/09/24 11:58:55;;;;;;;3.58;1.40;;;18.60;87.70;;;;;;5055422;28;20593;-71
2023/09/24 12:01:21;;;;;;;1.83;1.25;;;18.70;90.20;;;;;;5051830;28;20077;-71
2023/09/24 12:03:49;;;;;;;5.40;1.27;;;19.00;90.00;;;;;;5048749;28;20098;-70
2023/09/24 12:06:15;;;;;;;2.58;1.23;;;19.00;91.00;;;;;;5053536;28;20039;-70
2023/09/24 12:08:41;;;;;;;3.17;1.08;;;19.00;91.20;;;;;;5048626;28;20459;-71
2023/09/24 12:11:07;;;;;;;3.28;1.20;;;19.10;89.00;;;;;;5053658;28;20032;-70
2023/09/24 12:13:33;;;;;;;4.27;1.60;;;19.10;89.00;;;;;;5053104;28;20388;-71
2023/09/24 12:15:59;;;;;;;2.42;1.08;;;19.10;82.30;;;;;;5046303;28;20036;-71
2023/09/24 12:18:24;;;;;;;5.20;1.60;;;19.10;84.10;;;;;;5050302;28;20033;-70
2023/09/24 12:20:51;;;;;;;5.83;1.20;;;19.00;86.00;;;;;;5052430;28;20049;-70
2023/09/24 12:23:16;;;;;;;1.52;1.20;;;19.20;87.10;;;;;;5052854;28;20052;-70
2023/09/24 12:25:43;;;;;;;2.10;1.10;;;19.30;84.10;;;;;;5046680;28;20063;-70
2023/09/24 12:28:11;;;;;;;4.20;1.00;;;19.30;84.90;;;;;;5046400;28;20495;-70
2023/09/24 12:30:38;;;;;;;2.45;1.50;;;19.30;90.40;;;;;;5049866;28;20091;-70
2023/09/24 12:33:04;;;;;;;2.10;1.25;;;19.40;88.40;;;;;;5054680;28;20045;-70
2023/09/24 12:35:30;;;;;;;2.85;1.20;;;19.60;86.80;;;;;;5038991;28;20044;-70
2023/09/24 12:37:56;;;;;;;3.17;1.30;;;19.50;84.50;;;;;;5047654;28;20034;-71
2023/09/24 12:40:23;;;;;;;5.25;1.15;;;19.50;81.60;;;;;;5066915;28;20553;-71
2023/09/24 12:42:49;;;;;;;2.97;0.98;;;19.70;81.00;;;;;;5049942;28;20553;-70
2023/09/24 12:45:18;;;;;;;2.30;1.20;;;19.60;81.80;;;;;;5051804;28;20081;-71
2023/09/24 12:47:45;;;;;;;2.00;1.30;;;19.60;79.50;;;;;;5067512;28;20063;-70
2023/09/24 12:50:12;;;;;;;;;;;19.70;80.20;;;;;;5058455;28;20445;-68
2023/09/24 12:52:42;;;;;;;5.95;1.30;;;19.70;79.80;;;;;;5051297;28;19909;-69
2023/09/24 12:55:10;;;;;;;4.90;1.33;;;19.80;80.10;;;;;;5050104;28;20053;-70